Pocono Lake, Pennsylvania
Current Conditions -  °F | °C
As of 11:53 AM on Saturday 20 Dec 2014 (Local Time) from KMPO Reporting Station
Overcast Overcast  
Wind Chill: -9°   Ceiling: 1500
Heat Index: -4°   Visibility: 10mi
Dew Point: -8°   Wind: 8mph
Humidity: 75%   Direction: 330°NNW
Pressure: 30.16"   Gusts: NA
Location:  41.09°N, 75.58°W
Report Text: KMPO 201653Z AUTO 33007KT 10SM OVC015 M04/M08 A3016 RMK AO2 SLP242 T10391078
Loading
Personal Weather Stations






























Interactive Weather Map New forecast layout! Learn more

10-Day Weather Forecast

Advertisements
Track Severe Weather on mobile